sensor_id;sensor_type;location;lat;lon;timestamp;P1;durP1;ratioP1;P2;durP2;ratioP2
11588;SDS011;5850;51.360;12.362;2022-08-19T00:00:06;25.70;;;21.27;;
11588;SDS011;5850;51.360;12.362;2022-08-19T00:02:40;25.67;;;22.13;;
11588;SDS011;5850;51.360;12.362;2022-08-19T00:05:15;26.03;;;21.57;;
11588;SDS011;5850;51.360;12.362;2022-08-19T00:07:45;25.43;;;21.50;;
11588;SDS011;5850;51.360;12.362;2022-08-19T00:10:15;25.87;;;21.90;;
11588;SDS011;5850;51.360;12.362;2022-08-19T00:12:45;26.83;;;23.07;;
11588;SDS011;5850;51.360;12.362;2022-08-19T00:15:15;25.33;;;21.83;;
11588;SDS011;5850;51.360;12.362;2022-08-19T00:17:45;28.03;;;23.20;;
11588;SDS011;5850;51.360;12.362;2022-08-19T00:20:16;25.67;;;22.17;;
11588;SDS011;5850;51.360;12.362;2022-08-19T00:22:47;29.03;;;23.93;;
11588;SDS011;5850;51.360;12.362;2022-08-19T00:25:15;27.30;;;22.97;;
11588;SDS011;5850;51.360;12.362;2022-08-19T00:27:55;26.93;;;23.97;;
11588;SDS011;5850;51.360;12.362;2022-08-19T00:30:25;25.07;;;22.37;;
11588;SDS011;5850;51.360;12.362;2022-08-19T00:32:54;28.73;;;22.63;;
11588;SDS011;5850;51.360;12.362;2022-08-19T00:35:23;27.13;;;23.30;;
11588;SDS011;5850;51.360;12.362;2022-08-19T00:37:53;28.27;;;22.83;;
11588;SDS011;5850;51.360;12.362;2022-08-19T00:40:22;26.87;;;23.40;;
11588;SDS011;5850;51.360;12.362;2022-08-19T00:42:51;27.00;;;23.63;;
11588;SDS011;5850;51.360;12.362;2022-08-19T00:45:21;25.83;;;22.80;;
11588;SDS011;5850;51.360;12.362;2022-08-19T00:47:54;29.60;;;24.40;;
11588;SDS011;5850;51.360;12.362;2022-08-19T00:50:23;31.07;;;25.03;;
11588;SDS011;5850;51.360;12.362;2022-08-19T00:52:51;33.57;;;25.63;;
11588;SDS011;5850;51.360;12.362;2022-08-19T00:55:21;31.23;;;23.83;;
11588;SDS011;5850;51.360;12.362;2022-08-19T00:57:56;32.77;;;26.20;;
11588;SDS011;5850;51.360;12.362;2022-08-19T01:00:31;30.27;;;26.30;;
11588;SDS011;5850;51.360;12.362;2022-08-19T01:03:03;33.10;;;24.80;;
11588;SDS011;5850;51.360;12.362;2022-08-19T01:05:37;30.37;;;26.07;;
11588;SDS011;5850;51.360;12.362;2022-08-19T01:08:07;30.23;;;24.40;;
11588;SDS011;5850;51.360;12.362;2022-08-19T01:10:58;34.43;;;25.97;;
11588;SDS011;5850;51.360;12.362;2022-08-19T01:13:30;28.23;;;24.60;;
11588;SDS011;5850;51.360;12.362;2022-08-19T01:16:15;28.57;;;25.17;;
11588;SDS011;5850;51.360;12.362;2022-08-19T01:18:47;28.77;;;24.40;;
11588;SDS011;5850;51.360;12.362;2022-08-19T01:21:38;34.50;;;26.57;;
11588;SDS011;5850;51.360;12.362;2022-08-19T01:24:18;30.97;;;26.40;;
11588;SDS011;5850;51.360;12.362;2022-08-19T01:26:47;36.13;;;28.17;;
11588;SDS011;5850;51.360;12.362;2022-08-19T01:29:15;34.70;;;27.70;;
11588;SDS011;5850;51.360;12.362;2022-08-19T01:31:45;32.30;;;26.47;;
11588;SDS011;5850;51.360;12.362;2022-08-19T01:34:15;37.23;;;27.90;;
11588;SDS011;5850;51.360;12.362;2022-08-19T01:36:47;33.13;;;26.87;;
11588;SDS011;5850;51.360;12.362;2022-08-19T01:39:17;39.30;;;29.37;;
11588;SDS011;5850;51.360;12.362;2022-08-19T01:41:49;35.43;;;28.27;;
11588;SDS011;5850;51.360;12.362;2022-08-19T01:44:21;40.13;;;27.20;;
11588;SDS011;5850;51.360;12.362;2022-08-19T01:46:51;36.00;;;28.23;;
11588;SDS011;5850;51.360;12.362;2022-08-19T01:49:20;38.63;;;30.20;;
11588;SDS011;5850;51.360;12.362;2022-08-19T01:51:53;36.60;;;27.63;;
11588;SDS011;5850;51.360;12.362;2022-08-19T01:54:22;37.37;;;29.00;;
11588;SDS011;5850;51.360;12.362;2022-08-19T01:56:54;42.97;;;31.40;;
11588;SDS011;5850;51.360;12.362;2022-08-19T01:59:30;43.03;;;30.87;;
11588;SDS011;5850;51.360;12.362;2022-08-19T02:02:00;43.43;;;31.43;;
11588;SDS011;5850;51.360;12.362;2022-08-19T02:04:28;41.87;;;31.40;;
11588;SDS011;5850;51.360;12.362;2022-08-19T02:06:57;46.10;;;33.53;;
11588;SDS011;5850;51.360;12.362;2022-08-19T02:09:25;57.73;;;36.97;;
11588;SDS011;5850;51.360;12.362;2022-08-19T02:11:54;53.03;;;33.83;;
11588;SDS011;5850;51.360;12.362;2022-08-19T02:14:22;45.43;;;33.37;;
11588;SDS011;5850;51.360;12.362;2022-08-19T02:16:51;49.83;;;34.43;;
11588;SDS011;5850;51.360;12.362;2022-08-19T02:19:19;42.23;;;32.23;;
11588;SDS011;5850;51.360;12.362;2022-08-19T02:21:48;49.63;;;34.10;;
11588;SDS011;5850;51.360;12.362;2022-08-19T02:24:17;57.83;;;37.00;;
11588;SDS011;5850;51.360;12.362;2022-08-19T02:26:45;47.90;;;34.10;;
11588;SDS011;5850;51.360;12.362;2022-08-19T02:29:14;45.33;;;32.43;;
11588;SDS011;5850;51.360;12.362;2022-08-19T02:31:43;44.13;;;32.37;;
11588;SDS011;5850;51.360;12.362;2022-08-19T02:34:11;42.47;;;32.50;;
11588;SDS011;5850;51.360;12.362;2022-08-19T02:36:40;40.60;;;31.70;;
11588;SDS011;5850;51.360;12.362;2022-08-19T02:39:09;45.23;;;33.27;;
11588;SDS011;5850;51.360;12.362;2022-08-19T02:41:36;44.73;;;33.00;;
11588;SDS011;5850;51.360;12.362;2022-08-19T02:44:05;40.33;;;31.03;;
11588;SDS011;5850;51.360;12.362;2022-08-19T02:46:55;43.37;;;31.77;;
11588;SDS011;5850;51.360;12.362;2022-08-19T02:49:23;47.27;;;35.03;;
11588;SDS011;5850;51.360;12.362;2022-08-19T02:51:52;40.93;;;30.73;;
11588;SDS011;5850;51.360;12.362;2022-08-19T02:54:20;40.70;;;31.97;;
11588;SDS011;5850;51.360;12.362;2022-08-19T02:56:49;43.83;;;31.47;;
11588;SDS011;5850;51.360;12.362;2022-08-19T02:59:17;40.03;;;30.63;;
11588;SDS011;5850;51.360;12.362;2022-08-19T03:01:48;37.83;;;30.40;;
11588;SDS011;5850;51.360;12.362;2022-08-19T03:04:17;35.73;;;28.93;;
11588;SDS011;5850;51.360;12.362;2022-08-19T03:06:46;39.10;;;32.80;;
11588;SDS011;5850;51.360;12.362;2022-08-19T03:09:15;34.53;;;27.73;;
11588;SDS011;5850;51.360;12.362;2022-08-19T03:11:45;28.67;;;25.57;;
11588;SDS011;5850;51.360;12.362;2022-08-19T03:14:17;30.50;;;25.93;;
11588;SDS011;5850;51.360;12.362;2022-08-19T03:16:47;27.50;;;24.53;;
11588;SDS011;5850;51.360;12.362;2022-08-19T03:19:18;32.10;;;24.73;;
11588;SDS011;5850;51.360;12.362;2022-08-19T03:21:47;23.03;;;20.53;;
11588;SDS011;5850;51.360;12.362;2022-08-19T03:24:16;23.13;;;20.63;;
11588;SDS011;5850;51.360;12.362;2022-08-19T03:26:47;22.23;;;20.00;;
11588;SDS011;5850;51.360;12.362;2022-08-19T03:29:25;21.03;;;19.00;;
11588;SDS011;5850;51.360;12.362;2022-08-19T03:31:57;21.17;;;18.80;;
11588;SDS011;5850;51.360;12.362;2022-08-19T03:34:30;19.87;;;17.77;;
11588;SDS011;5850;51.360;12.362;2022-08-19T03:37:03;19.70;;;17.63;;
11588;SDS011;5850;51.360;12.362;2022-08-19T03:39:36;21.97;;;19.30;;
11588;SDS011;5850;51.360;12.362;2022-08-19T03:42:06;19.87;;;17.87;;
11588;SDS011;5850;51.360;12.362;2022-08-19T03:44:54;20.17;;;18.00;;
11588;SDS011;5850;51.360;12.362;2022-08-19T03:47:24;21.87;;;19.67;;
11588;SDS011;5850;51.360;12.362;2022-08-19T03:49:52;20.77;;;18.67;;
11588;SDS011;5850;51.360;12.362;2022-08-19T03:52:21;21.17;;;18.97;;
11588;SDS011;5850;51.360;12.362;2022-08-19T03:54:50;22.13;;;19.73;;
11588;SDS011;5850;51.360;12.362;2022-08-19T03:57:18;21.40;;;19.20;;
11588;SDS011;5850;51.360;12.362;2022-08-19T03:59:57;22.27;;;20.00;;
11588;SDS011;5850;51.360;12.362;2022-08-19T04:02:39;21.13;;;18.90;;
11588;SDS011;5850;51.360;12.362;2022-08-19T04:05:26;23.63;;;20.07;;
11588;SDS011;5850;51.360;12.362;2022-08-19T04:07:56;18.83;;;17.03;;
11588;SDS011;5850;51.360;12.362;2022-08-19T04:10:25;20.97;;;18.87;;
11588;SDS011;5850;51.360;12.362;2022-08-19T04:12:54;20.27;;;18.17;;
11588;SDS011;5850;51.360;12.362;2022-08-19T04:15:23;20.73;;;18.00;;
11588;SDS011;5850;51.360;12.362;2022-08-19T04:17:51;20.77;;;18.70;;
11588;SDS011;5850;51.360;12.362;2022-08-19T04:20:20;22.57;;;18.60;;
11588;SDS011;5850;51.360;12.362;2022-08-19T04:22:48;19.03;;;17.17;;
11588;SDS011;5850;51.360;12.362;2022-08-19T04:25:17;19.63;;;17.70;;
11588;SDS011;5850;51.360;12.362;2022-08-19T04:27:45;19.53;;;17.57;;
11588;SDS011;5850;51.360;12.362;2022-08-19T04:30:14;19.87;;;17.90;;
11588;SDS011;5850;51.360;12.362;2022-08-19T04:32:44;21.83;;;19.60;;
11588;SDS011;5850;51.360;12.362;2022-08-19T04:35:11;23.60;;;20.47;;
11588;SDS011;5850;51.360;12.362;2022-08-19T04:37:42;25.27;;;22.47;;
11588;SDS011;5850;51.360;12.362;2022-08-19T04:40:11;25.63;;;22.53;;
11588;SDS011;5850;51.360;12.362;2022-08-19T04:42:57;26.43;;;22.33;;
11588;SDS011;5850;51.360;12.362;2022-08-19T04:45:25;24.83;;;22.17;;
11588;SDS011;5850;51.360;12.362;2022-08-19T04:48:04;26.33;;;23.53;;
11588;SDS011;5850;51.360;12.362;2022-08-19T04:50:53;25.73;;;22.90;;
11588;SDS011;5850;51.360;12.362;2022-08-19T04:53:25;28.27;;;25.30;;
11588;SDS011;5850;51.360;12.362;2022-08-19T04:56:04;28.47;;;25.37;;
11588;SDS011;5850;51.360;12.362;2022-08-19T04:58:39;28.43;;;25.00;;
11588;SDS011;5850;51.360;12.362;2022-08-19T05:01:14;28.47;;;25.37;;
11588;SDS011;5850;51.360;12.362;2022-08-19T05:03:50;28.30;;;23.87;;
11588;SDS011;5850;51.360;12.362;2022-08-19T05:06:19;29.83;;;26.63;;
11588;SDS011;5850;51.360;12.362;2022-08-19T05:08:49;29.10;;;24.70;;
11588;SDS011;5850;51.360;12.362;2022-08-19T05:11:20;28.77;;;25.77;;
11588;SDS011;5850;51.360;12.362;2022-08-19T05:13:51;28.33;;;25.43;;
11588;SDS011;5850;51.360;12.362;2022-08-19T05:16:20;29.70;;;26.53;;
11588;SDS011;5850;51.360;12.362;2022-08-19T05:18:50;29.30;;;26.30;;
11588;SDS011;5850;51.360;12.362;2022-08-19T05:21:36;31.67;;;27.43;;
11588;SDS011;5850;51.360;12.362;2022-08-19T05:24:25;37.40;;;31.00;;
11588;SDS011;5850;51.360;12.362;2022-08-19T05:26:56;33.27;;;29.63;;
11588;SDS011;5850;51.360;12.362;2022-08-19T05:29:26;34.63;;;30.90;;
11588;SDS011;5850;51.360;12.362;2022-08-19T05:32:02;34.57;;;29.93;;
11588;SDS011;5850;51.360;12.362;2022-08-19T05:34:35;36.70;;;32.27;;
11588;SDS011;5850;51.360;12.362;2022-08-19T05:37:04;35.30;;;30.63;;
11588;SDS011;5850;51.360;12.362;2022-08-19T05:39:34;37.87;;;33.23;;
11588;SDS011;5850;51.360;12.362;2022-08-19T05:42:06;36.27;;;31.33;;
11588;SDS011;5850;51.360;12.362;2022-08-19T05:44:37;40.83;;;34.00;;
11588;SDS011;5850;51.360;12.362;2022-08-19T05:47:10;42.07;;;34.90;;
11588;SDS011;5850;51.360;12.362;2022-08-19T05:49:41;55.53;;;43.10;;
11588;SDS011;5850;51.360;12.362;2022-08-19T05:52:11;43.63;;;37.97;;
11588;SDS011;5850;51.360;12.362;2022-08-19T05:54:44;38.60;;;33.00;;
11588;SDS011;5850;51.360;12.362;2022-08-19T05:57:17;40.97;;;31.67;;
11588;SDS011;5850;51.360;12.362;2022-08-19T05:59:46;38.37;;;32.23;;
11588;SDS011;5850;51.360;12.362;2022-08-19T06:02:24;37.77;;;33.37;;
11588;SDS011;5850;51.360;12.362;2022-08-19T06:04:57;37.63;;;32.30;;
11588;SDS011;5850;51.360;12.362;2022-08-19T06:07:25;39.23;;;34.20;;
11588;SDS011;5850;51.360;12.362;2022-08-19T06:09:55;39.80;;;33.13;;
11588;SDS011;5850;51.360;12.362;2022-08-19T06:12:29;34.67;;;30.03;;
11588;SDS011;5850;51.360;12.362;2022-08-19T06:15:02;38.27;;;33.10;;
11588;SDS011;5850;51.360;12.362;2022-08-19T06:17:37;38.37;;;30.97;;
11588;SDS011;5850;51.360;12.362;2022-08-19T06:20:07;44.37;;;36.90;;
11588;SDS011;5850;51.360;12.362;2022-08-19T06:22:44;42.27;;;36.33;;
11588;SDS011;5850;51.360;12.362;2022-08-19T06:25:14;43.57;;;36.63;;
11588;SDS011;5850;51.360;12.362;2022-08-19T06:27:43;39.43;;;34.93;;
11588;SDS011;5850;51.360;12.362;2022-08-19T06:30:32;43.30;;;35.60;;
11588;SDS011;5850;51.360;12.362;2022-08-19T06:33:00;38.90;;;34.27;;
11588;SDS011;5850;51.360;12.362;2022-08-19T06:35:28;48.30;;;37.63;;
11588;SDS011;5850;51.360;12.362;2022-08-19T06:37:57;36.23;;;31.67;;
11588;SDS011;5850;51.360;12.362;2022-08-19T06:40:25;38.27;;;34.10;;
11588;SDS011;5850;51.360;12.362;2022-08-19T06:42:54;39.17;;;33.70;;
11588;SDS011;5850;51.360;12.362;2022-08-19T06:45:26;42.30;;;34.10;;
11588;SDS011;5850;51.360;12.362;2022-08-19T06:48:00;44.27;;;38.50;;
11588;SDS011;5850;51.360;12.362;2022-08-19T06:50:29;47.97;;;39.30;;
11588;SDS011;5850;51.360;12.362;2022-08-19T06:52:58;38.10;;;34.10;;
11588;SDS011;5850;51.360;12.362;2022-08-19T06:55:29;46.27;;;37.60;;
11588;SDS011;5850;51.360;12.362;2022-08-19T06:58:01;40.23;;;33.43;;
11588;SDS011;5850;51.360;12.362;2022-08-19T07:00:31;37.33;;;32.10;;
11588;SDS011;5850;51.360;12.362;2022-08-19T07:03:00;40.87;;;33.40;;
11588;SDS011;5850;51.360;12.362;2022-08-19T07:05:37;39.33;;;31.80;;
11588;SDS011;5850;51.360;12.362;2022-08-19T07:08:11;39.97;;;33.80;;
11588;SDS011;5850;51.360;12.362;2022-08-19T07:10:44;46.53;;;35.97;;
11588;SDS011;5850;51.360;12.362;2022-08-19T07:13:14;50.13;;;38.27;;
11588;SDS011;5850;51.360;12.362;2022-08-19T07:15:42;41.37;;;32.60;;
11588;SDS011;5850;51.360;12.362;2022-08-19T07:18:12;38.37;;;32.63;;
11588;SDS011;5850;51.360;12.362;2022-08-19T07:20:42;37.73;;;29.37;;
11588;SDS011;5850;51.360;12.362;2022-08-19T07:23:10;40.50;;;31.20;;
11588;SDS011;5850;51.360;12.362;2022-08-19T07:25:41;34.93;;;28.87;;
11588;SDS011;5850;51.360;12.362;2022-08-19T07:28:18;34.33;;;26.90;;
11588;SDS011;5850;51.360;12.362;2022-08-19T07:30:50;31.53;;;26.13;;
11588;SDS011;5850;51.360;12.362;2022-08-19T07:33:20;34.73;;;30.63;;
11588;SDS011;5850;51.360;12.362;2022-08-19T07:35:53;35.93;;;28.23;;
11588;SDS011;5850;51.360;12.362;2022-08-19T07:38:21;45.33;;;35.10;;
11588;SDS011;5850;51.360;12.362;2022-08-19T07:40:50;35.67;;;30.83;;
11588;SDS011;5850;51.360;12.362;2022-08-19T07:43:18;39.40;;;29.83;;
11588;SDS011;5850;51.360;12.362;2022-08-19T07:45:59;39.37;;;31.67;;
11588;SDS011;5850;51.360;12.362;2022-08-19T07:48:28;38.87;;;31.50;;
11588;SDS011;5850;51.360;12.362;2022-08-19T07:50:58;36.70;;;29.37;;
11588;SDS011;5850;51.360;12.362;2022-08-19T07:53:31;39.13;;;29.07;;
11588;SDS011;5850;51.360;12.362;2022-08-19T07:56:05;34.00;;;28.53;;
11588;SDS011;5850;51.360;12.362;2022-08-19T07:58:35;42.03;;;35.03;;
11588;SDS011;5850;51.360;12.362;2022-08-19T08:01:06;34.27;;;29.07;;
11588;SDS011;5850;51.360;12.362;2022-08-19T08:03:38;33.80;;;28.33;;
11588;SDS011;5850;51.360;12.362;2022-08-19T08:06:24;34.60;;;27.07;;
11588;SDS011;5850;51.360;12.362;2022-08-19T08:09:10;36.97;;;31.17;;
11588;SDS011;5850;51.360;12.362;2022-08-19T08:11:42;36.23;;;30.57;;
11588;SDS011;5850;51.360;12.362;2022-08-19T08:14:17;36.03;;;28.77;;
11588;SDS011;5850;51.360;12.362;2022-08-19T08:16:55;29.93;;;26.70;;
11588;SDS011;5850;51.360;12.362;2022-08-19T08:19:24;30.87;;;27.60;;
11588;SDS011;5850;51.360;12.362;2022-08-19T08:21:56;28.53;;;25.20;;
11588;SDS011;5850;51.360;12.362;2022-08-19T08:24:27;27.63;;;24.00;;
11588;SDS011;5850;51.360;12.362;2022-08-19T08:26:57;30.33;;;27.03;;
11588;SDS011;5850;51.360;12.362;2022-08-19T08:29:27;32.07;;;27.30;;
11588;SDS011;5850;51.360;12.362;2022-08-19T08:32:00;31.67;;;28.03;;
11588;SDS011;5850;51.360;12.362;2022-08-19T08:34:39;29.90;;;25.37;;
11588;SDS011;5850;51.360;12.362;2022-08-19T08:37:08;25.73;;;22.93;;
11588;SDS011;5850;51.360;12.362;2022-08-19T08:39:36;31.27;;;27.70;;
11588;SDS011;5850;51.360;12.362;2022-08-19T08:42:49;27.77;;;23.17;;
11588;SDS011;5850;51.360;12.362;2022-08-19T08:45:11;27.20;;;24.40;;
11588;SDS011;5850;51.360;12.362;2022-08-19T08:47:43;25.17;;;22.13;;
11588;SDS011;5850;51.360;12.362;2022-08-19T08:50:20;25.27;;;22.53;;
11588;SDS011;5850;51.360;12.362;2022-08-19T08:52:56;26.57;;;23.40;;
11588;SDS011;5850;51.360;12.362;2022-08-19T08:55:27;30.93;;;24.37;;
11588;SDS011;5850;51.360;12.362;2022-08-19T08:58:06;26.13;;;23.43;;
11588;SDS011;5850;51.360;12.362;2022-08-19T09:00:43;25.07;;;22.00;;
11588;SDS011;5850;51.360;12.362;2022-08-19T09:03:17;26.37;;;23.43;;
11588;SDS011;5850;51.360;12.362;2022-08-19T09:08:52;25.47;;;22.60;;
11588;SDS011;5850;51.360;12.362;2022-08-19T09:11:41;26.50;;;20.30;;
11588;SDS011;5850;51.360;12.362;2022-08-19T09:14:41;29.87;;;25.27;;
11588;SDS011;5850;51.360;12.362;2022-08-19T09:17:34;23.87;;;21.27;;
11588;SDS011;5850;51.360;12.362;2022-08-19T09:22:36;24.63;;;20.83;;
11588;SDS011;5850;51.360;12.362;2022-08-19T09:25:08;24.80;;;20.20;;
11588;SDS011;5850;51.360;12.362;2022-08-19T09:27:40;27.67;;;21.77;;
11588;SDS011;5850;51.360;12.362;2022-08-19T09:30:27;24.43;;;21.57;;
11588;SDS011;5850;51.360;12.362;2022-08-19T09:32:59;23.63;;;20.90;;
11588;SDS011;5850;51.360;12.362;2022-08-19T09:35:28;27.07;;;22.93;;
11588;SDS011;5850;51.360;12.362;2022-08-19T09:38:14;33.33;;;25.47;;
11588;SDS011;5850;51.360;12.362;2022-08-19T09:40:43;28.03;;;23.03;;
11588;SDS011;5850;51.360;12.362;2022-08-19T09:43:11;31.80;;;26.47;;
11588;SDS011;5850;51.360;12.362;2022-08-19T09:45:54;31.13;;;24.93;;
11588;SDS011;5850;51.360;12.362;2022-08-19T09:48:22;28.63;;;23.17;;
11588;SDS011;5850;51.360;12.362;2022-08-19T09:50:50;26.30;;;21.40;;
11588;SDS011;5850;51.360;12.362;2022-08-19T09:53:19;32.90;;;24.43;;
11588;SDS011;5850;51.360;12.362;2022-08-19T09:55:51;30.33;;;24.57;;
11588;SDS011;5850;51.360;12.362;2022-08-19T09:58:19;24.97;;;21.83;;
11588;SDS011;5850;51.360;12.362;2022-08-19T10:00:51;31.70;;;28.10;;
11588;SDS011;5850;51.360;12.362;2022-08-19T10:03:21;29.67;;;24.03;;
11588;SDS011;5850;51.360;12.362;2022-08-19T10:05:56;26.93;;;23.17;;
11588;SDS011;5850;51.360;12.362;2022-08-19T10:08:29;24.93;;;20.97;;
11588;SDS011;5850;51.360;12.362;2022-08-19T10:11:01;31.07;;;26.20;;
11588;SDS011;5850;51.360;12.362;2022-08-19T10:13:51;27.40;;;24.50;;
11588;SDS011;5850;51.360;12.362;2022-08-19T10:16:20;21.00;;;18.77;;
11588;SDS011;5850;51.360;12.362;2022-08-19T10:18:55;21.07;;;18.67;;
11588;SDS011;5850;51.360;12.362;2022-08-19T10:21:29;16.93;;;15.20;;
11588;SDS011;5850;51.360;12.362;2022-08-19T10:24:01;18.37;;;16.50;;
11588;SDS011;5850;51.360;12.362;2022-08-19T10:26:35;27.23;;;22.13;;
11588;SDS011;5850;51.360;12.362;2022-08-19T10:29:07;17.60;;;15.60;;
11588;SDS011;5850;51.360;12.362;2022-08-19T10:31:37;17.70;;;15.80;;
11588;SDS011;5850;51.360;12.362;2022-08-19T10:34:26;20.13;;;18.00;;
11588;SDS011;5850;51.360;12.362;2022-08-19T10:36:55;19.13;;;16.30;;
11588;SDS011;5850;51.360;12.362;2022-08-19T10:39:28;17.43;;;14.63;;
11588;SDS011;5850;51.360;12.362;2022-08-19T10:42:09;19.67;;;17.10;;
11588;SDS011;5850;51.360;12.362;2022-08-19T10:44:39;19.63;;;17.50;;
11588;SDS011;5850;51.360;12.362;2022-08-19T10:47:08;15.63;;;13.93;;
11588;SDS011;5850;51.360;12.362;2022-08-19T10:49:50;15.77;;;14.17;;
11588;SDS011;5850;51.360;12.362;2022-08-19T10:52:37;16.47;;;14.67;;
11588;SDS011;5850;51.360;12.362;2022-08-19T10:55:16;14.00;;;12.50;;
11588;SDS011;5850;51.360;12.362;2022-08-19T10:58:11;15.80;;;14.00;;
11588;SDS011;5850;51.360;12.362;2022-08-19T11:00:53;14.97;;;12.53;;
11588;SDS011;5850;51.360;12.362;2022-08-19T11:03:24;15.17;;;13.57;;
11588;SDS011;5850;51.360;12.362;2022-08-19T11:06:01;22.43;;;15.47;;
11588;SDS011;5850;51.360;12.362;2022-08-19T11:08:35;16.43;;;12.73;;
11588;SDS011;5850;51.360;12.362;2022-08-19T11:11:06;15.60;;;12.57;;
11588;SDS011;5850;51.360;12.362;2022-08-19T11:13:37;15.60;;;13.20;;
11588;SDS011;5850;51.360;12.362;2022-08-19T11:16:10;18.90;;;13.03;;
11588;SDS011;5850;51.360;12.362;2022-08-19T11:18:44;17.37;;;13.43;;
11588;SDS011;5850;51.360;12.362;2022-08-19T11:21:20;14.33;;;11.87;;
11588;SDS011;5850;51.360;12.362;2022-08-19T11:23:59;12.07;;;10.80;;
11588;SDS011;5850;51.360;12.362;2022-08-19T11:26:33;13.23;;;10.20;;
11588;SDS011;5850;51.360;12.362;2022-08-19T11:29:02;12.37;;;10.57;;
11588;SDS011;5850;51.360;12.362;2022-08-19T11:31:33;9.73;;;8.73;;
11588;SDS011;5850;51.360;12.362;2022-08-19T11:34:06;10.23;;;7.93;;
11588;SDS011;5850;51.360;12.362;2022-08-19T11:36:37;11.03;;;9.23;;
11588;SDS011;5850;51.360;12.362;2022-08-19T11:39:10;12.40;;;9.40;;
11588;SDS011;5850;51.360;12.362;2022-08-19T11:41:47;10.20;;;9.20;;
11588;SDS011;5850;51.360;12.362;2022-08-19T11:44:16;9.97;;;8.60;;
11588;SDS011;5850;51.360;12.362;2022-08-19T11:46:44;10.37;;;9.43;;
11588;SDS011;5850;51.360;12.362;2022-08-19T11:49:14;9.40;;;8.50;;
11588;SDS011;5850;51.360;12.362;2022-08-19T11:51:45;10.67;;;8.73;;
11588;SDS011;5850;51.360;12.362;2022-08-19T11:54:14;9.50;;;8.37;;
11588;SDS011;5850;51.360;12.362;2022-08-19T11:56:44;10.13;;;9.13;;
11588;SDS011;5850;51.360;12.362;2022-08-19T11:59:14;8.70;;;7.80;;
11588;SDS011;5850;51.360;12.362;2022-08-19T12:01:42;11.17;;;9.07;;
11588;SDS011;5850;51.360;12.362;2022-08-19T12:04:11;9.63;;;8.33;;
11588;SDS011;5850;51.360;12.362;2022-08-19T12:06:40;11.07;;;9.10;;
11588;SDS011;5850;51.360;12.362;2022-08-19T12:09:09;8.17;;;7.40;;
11588;SDS011;5850;51.360;12.362;2022-08-19T12:11:38;12.23;;;11.00;;
11588;SDS011;5850;51.360;12.362;2022-08-19T12:14:09;14.37;;;10.90;;
11588;SDS011;5850;51.360;12.362;2022-08-19T12:16:43;11.67;;;10.47;;
11588;SDS011;5850;51.360;12.362;2022-08-19T12:19:17;11.07;;;9.93;;
11588;SDS011;5850;51.360;12.362;2022-08-19T12:21:47;14.33;;;9.33;;
11588;SDS011;5850;51.360;12.362;2022-08-19T12:24:17;12.00;;;10.03;;
11588;SDS011;5850;51.360;12.362;2022-08-19T12:26:49;9.77;;;8.77;;
11588;SDS011;5850;51.360;12.362;2022-08-19T12:29:20;9.63;;;8.73;;
11588;SDS011;5850;51.360;12.362;2022-08-19T12:31:56;9.23;;;8.33;;
11588;SDS011;5850;51.360;12.362;2022-08-19T12:34:30;10.20;;;8.90;;
11588;SDS011;5850;51.360;12.362;2022-08-19T12:37:01;10.70;;;9.57;;
11588;SDS011;5850;51.360;12.362;2022-08-19T12:39:35;11.53;;;9.77;;
11588;SDS011;5850;51.360;12.362;2022-08-19T12:42:10;12.23;;;11.03;;
11588;SDS011;5850;51.360;12.362;2022-08-19T12:44:39;9.73;;;8.83;;
11588;SDS011;5850;51.360;12.362;2022-08-19T12:47:10;11.37;;;10.17;;
11588;SDS011;5850;51.360;12.362;2022-08-19T12:49:40;10.20;;;9.20;;
11588;SDS011;5850;51.360;12.362;2022-08-19T12:52:21;15.43;;;11.53;;
11588;SDS011;5850;51.360;12.362;2022-08-19T12:54:53;10.70;;;9.60;;
11588;SDS011;5850;51.360;12.362;2022-08-19T12:57:24;11.83;;;10.47;;
11588;SDS011;5850;51.360;12.362;2022-08-19T12:59:59;12.77;;;10.53;;
11588;SDS011;5850;51.360;12.362;2022-08-19T13:02:41;15.00;;;13.40;;
11588;SDS011;5850;51.360;12.362;2022-08-19T13:05:16;12.77;;;10.07;;
11588;SDS011;5850;51.360;12.362;2022-08-19T13:07:51;9.43;;;8.43;;
11588;SDS011;5850;51.360;12.362;2022-08-19T13:10:28;10.83;;;9.73;;
11588;SDS011;5850;51.360;12.362;2022-08-19T13:13:02;13.70;;;12.13;;
11588;SDS011;5850;51.360;12.362;2022-08-19T13:15:36;10.87;;;9.70;;
11588;SDS011;5850;51.360;12.362;2022-08-19T13:18:08;11.43;;;10.27;;
11588;SDS011;5850;51.360;12.362;2022-08-19T13:20:37;11.57;;;10.00;;
11588;SDS011;5850;51.360;12.362;2022-08-19T13:23:07;9.80;;;8.80;;
11588;SDS011;5850;51.360;12.362;2022-08-19T13:25:36;10.53;;;8.97;;
11588;SDS011;5850;51.360;12.362;2022-08-19T13:28:05;11.30;;;9.97;;
11588;SDS011;5850;51.360;12.362;2022-08-19T13:30:37;13.63;;;11.43;;
11588;SDS011;5850;51.360;12.362;2022-08-19T13:33:23;11.50;;;9.00;;
11588;SDS011;5850;51.360;12.362;2022-08-19T13:35:56;12.33;;;8.50;;
11588;SDS011;5850;51.360;12.362;2022-08-19T13:38:27;9.80;;;8.70;;
11588;SDS011;5850;51.360;12.362;2022-08-19T13:40:56;10.27;;;9.27;;
11588;SDS011;5850;51.360;12.362;2022-08-19T13:43:38;9.70;;;8.70;;
11588;SDS011;5850;51.360;12.362;2022-08-19T13:46:08;10.57;;;8.93;;
11588;SDS011;5850;51.360;12.362;2022-08-19T13:48:39;10.80;;;9.63;;
11588;SDS011;5850;51.360;12.362;2022-08-19T13:51:08;10.70;;;9.60;;
11588;SDS011;5850;51.360;12.362;2022-08-19T13:53:37;9.87;;;8.90;;
11588;SDS011;5850;51.360;12.362;2022-08-19T13:56:13;10.80;;;9.70;;
11588;SDS011;5850;51.360;12.362;2022-08-19T13:58:51;9.40;;;8.47;;
11588;SDS011;5850;51.360;12.362;2022-08-19T14:01:23;11.03;;;8.87;;
11588;SDS011;5850;51.360;12.362;2022-08-19T14:03:52;9.83;;;8.83;;
11588;SDS011;5850;51.360;12.362;2022-08-19T14:06:21;10.27;;;8.83;;
11588;SDS011;5850;51.360;12.362;2022-08-19T14:08:49;9.97;;;8.67;;
11588;SDS011;5850;51.360;12.362;2022-08-19T14:11:18;11.77;;;8.37;;
11588;SDS011;5850;51.360;12.362;2022-08-19T14:13:49;9.27;;;8.37;;
11588;SDS011;5850;51.360;12.362;2022-08-19T14:16:18;9.50;;;8.27;;
11588;SDS011;5850;51.360;12.362;2022-08-19T14:18:47;10.37;;;9.30;;
11588;SDS011;5850;51.360;12.362;2022-08-19T14:21:17;9.57;;;8.03;;
11588;SDS011;5850;51.360;12.362;2022-08-19T14:23:48;12.40;;;8.37;;
11588;SDS011;5850;51.360;12.362;2022-08-19T14:26:17;8.97;;;8.07;;
11588;SDS011;5850;51.360;12.362;2022-08-19T14:28:47;8.77;;;7.97;;
11588;SDS011;5850;51.360;12.362;2022-08-19T14:31:17;9.30;;;8.33;;
11588;SDS011;5850;51.360;12.362;2022-08-19T14:33:47;8.67;;;7.87;;
11588;SDS011;5850;51.360;12.362;2022-08-19T14:36:17;8.90;;;7.57;;
11588;SDS011;5850;51.360;12.362;2022-08-19T14:38:47;8.73;;;7.93;;
11588;SDS011;5850;51.360;12.362;2022-08-19T14:41:17;8.87;;;7.50;;
11588;SDS011;5850;51.360;12.362;2022-08-19T14:43:50;8.00;;;7.20;;
11588;SDS011;5850;51.360;12.362;2022-08-19T14:46:20;7.87;;;7.07;;
11588;SDS011;5850;51.360;12.362;2022-08-19T14:48:53;8.00;;;7.20;;
11588;SDS011;5850;51.360;12.362;2022-08-19T14:51:25;6.70;;;6.00;;
11588;SDS011;5850;51.360;12.362;2022-08-19T14:53:54;7.47;;;6.70;;
11588;SDS011;5850;51.360;12.362;2022-08-19T14:56:23;7.53;;;6.73;;
11588;SDS011;5850;51.360;12.362;2022-08-19T14:58:55;8.20;;;7.40;;
11588;SDS011;5850;51.360;12.362;2022-08-19T15:01:27;7.53;;;6.67;;